createdAt,value
2022-11-09T00:14:47.052Z,185.89066
2022-11-09T00:29:49.265Z,47.59519
2022-11-09T00:44:51.596Z,4.49011
2022-11-09T00:59:53.843Z,0
2022-11-09T01:14:56.229Z,0
2022-11-09T01:29:58.555Z,0
2022-11-09T01:45:01.090Z,0
2022-11-09T02:00:03.616Z,0
2022-11-09T02:15:06.365Z,0
2022-11-09T02:30:08.971Z,0
2022-11-09T02:45:11.778Z,0
2022-11-09T03:00:14.377Z,0
2022-11-09T03:15:16.766Z,0
2022-11-09T03:30:19.344Z,0
2022-11-09T03:45:21.743Z,0
2022-11-09T04:00:24.474Z,0
2022-11-09T04:15:26.934Z,0
2022-11-09T04:30:29.606Z,0
2022-11-09T04:45:32.124Z,0
2022-11-09T05:00:34.913Z,0
2022-11-09T05:15:37.907Z,0
2022-11-09T05:30:40.482Z,0
2022-11-09T05:45:43.935Z,0
2022-11-09T06:00:46.593Z,0
2022-11-09T06:15:49.068Z,0
2022-11-09T06:30:51.518Z,0
2022-11-09T06:45:53.929Z,0
2022-11-09T07:00:56.323Z,0
2022-11-09T07:15:58.695Z,0
2022-11-09T07:31:01.064Z,0
2022-11-09T07:46:03.359Z,0
2022-11-09T08:01:05.809Z,0
2022-11-09T08:16:08.223Z,0
2022-11-09T08:31:10.827Z,0
2022-11-09T08:46:13.301Z,0
2022-11-09T09:01:17.310Z,0
2022-11-09T09:16:19.902Z,0
2022-11-09T09:31:22.314Z,0
2022-11-09T09:46:24.748Z,0
2022-11-09T10:01:27.267Z,0
2022-11-09T10:16:29.660Z,0
2022-11-09T10:31:31.867Z,0
2022-11-09T10:46:34.163Z,0
2022-11-09T11:01:36.591Z,0
2022-11-09T11:16:38.870Z,0
2022-11-09T11:31:41.310Z,0
2022-11-09T11:46:43.741Z,0
2022-11-09T12:01:46.005Z,0
2022-11-09T12:16:48.356Z,0
2022-11-09T12:31:50.715Z,0
2022-11-09T12:46:53.018Z,0
2022-11-09T13:01:55.345Z,0
2022-11-09T13:16:57.663Z,0
2022-11-09T13:32:00.099Z,0
2022-11-09T13:47:02.300Z,0
2022-11-09T14:02:04.813Z,0
2022-11-09T14:17:07.264Z,0
2022-11-09T14:32:09.494Z,2.69407
2022-11-09T14:47:11.745Z,20.65452
2022-11-09T15:02:14.369Z,114.94688
2022-11-09T15:17:17.012Z,217.32144
2022-11-09T15:32:19.340Z,358.31097
2022-11-09T15:47:21.676Z,723.80609
2022-11-09T16:02:24.540Z,713.92786
2022-11-09T16:17:26.810Z,1276.98792
2022-11-09T16:32:29.148Z,1590.39783
2022-11-09T16:47:31.707Z,1834.65991
2022-11-09T17:02:34.192Z,2377.96362
2022-11-09T17:17:36.523Z,2552.17993
2022-11-09T17:32:38.702Z,2621.32764
2022-11-09T17:47:40.849Z,2904.20459
2022-11-09T18:02:43.161Z,3027.23364
2022-11-09T18:17:45.428Z,3477.14307
2022-11-09T18:32:47.660Z,3950.40088
2022-11-09T18:47:49.877Z,3545.39282
2022-11-09T19:02:52.103Z,4242.2583
2022-11-09T19:17:54.450Z,5564.14746
2022-11-09T19:32:56.702Z,5225.59277
2022-11-09T19:47:58.967Z,7216.50879
2022-11-09T20:03:01.194Z,7453.58643
2022-11-09T20:18:03.503Z,7273.08398
2022-11-09T20:33:06.318Z,9150.84863
2022-11-09T20:48:24.889Z,8321.97461
2022-11-09T21:03:49.248Z,9644.76172
2022-11-09T21:18:51.632Z,10443.10352
2022-11-09T21:33:53.931Z,10010.25684
2022-11-09T21:48:56.140Z,8797.92578
2022-11-09T22:03:58.415Z,7361.09033
2022-11-09T22:19:00.874Z,5314.49707
2022-11-09T22:34:03.139Z,2471.35791
2022-11-09T23:19:27.816Z,986.9267
2022-11-09T23:34:30.243Z,724.70416
2022-11-09T23:49:32.717Z,455.29739
